Latest Weather Observations for Scoresby

IDV60801

Issued at 11:32 pm EST Monday 26 June 2017 (issued every 30 minutes, with the page automatically refreshed every 10 minutes)

About weather observations | Map of weather stations | Latest weather observations for VIC | Other Formats
Station Details ID: 086104 Name: SCORESBY RESEARCH INSTITUTE Lat: -37.87 Lon: 145.26 Height: 80.0 m
Data from the previous 72 hours. | See also: Recent months at Scoresby
Date/Time
EST
Temp
°C
App
Temp
°C
Dew
Point
°C
Rel
Hum
%
Delta-T
°C
Wind Press
QNH
hPa
Press
MSL
hPa
Rain since
9am
mm
Dir  Spd
km/h
Gust
km/h
Spd
kts
Gust
kts
26/11:30pm 7.4 6.7 6.8 96 0.3 CALM 0 0 0 0 - - 0.6
26/11:00pm 7.4 6.7 6.8 96 0.3 CALM 0 0 0 0 - - 0.6
26/10:30pm 7.3 6.5 6.6 95 0.3 CALM 0 0 0 0 - - 0.6
26/10:00pm 7.5 6.8 6.8 95 0.3 CALM 0 0 0 0 - - 0.6
26/09:30pm 7.2 6.4 6.3 94 0.4 CALM 0 0 0 0 - - 0.6
26/09:00pm 7.5 6.6 6.1 91 0.6 CALM 0 0 0 0 - - 0.6
26/08:30pm 9.0 8.4 7.6 91 0.7 CALM 0 0 0 0 - - 0.6
26/08:00pm 9.2 8.7 7.8 91 0.7 CALM 0 0 0 0 - - 0.6
26/07:30pm 9.3 8.9 8.2 93 0.5 CALM 0 0 0 0 - - 0.6
26/07:00pm 9.4 9.0 8.3 93 0.5 CALM 0 0 0 0 - - 0.6
26/06:30pm 9.4 8.9 8.0 91 0.7 CALM 0 0 0 0 - - 0.6
26/06:00pm 9.6 9.1 8.0 90 0.8 CALM 0 0 0 0 - - 0.6
26/05:30pm 9.9 9.4 8.0 88 0.9 CALM 0 0 0 0 - - 0.6
26/05:00pm 10.4 10.0 8.2 86 1.1 CALM 0 0 0 0 - - 0.6
26/04:30pm 10.8 10.3 7.7 81 1.5 CALM 0 2 0 1 - - 0.6
26/04:00pm 11.5 11.1 8.4 81 1.5 CALM 0 0 0 0 - - 0.6
26/03:30pm 10.9 10.5 8.3 84 1.3 CALM 0 2 0 1 - - 0.6
26/03:00pm 10.4 10.1 8.5 88 0.9 CALM 0 4 0 2 - - 0.6
26/02:30pm 9.9 9.2 8.5 91 0.7 SE 2 4 1 2 - - 0.6
26/02:00pm 9.9 8.2 8.3 90 0.8 SSW 7 11 4 6 - - 0.6
26/01:30pm 10.6 9.9 8.4 86 1.1 SSW 2 4 1 2 - - 0.4
26/01:00pm 10.4 9.7 8.5 88 0.9 W 2 6 1 3 - - 0.4
26/12:30pm 10.3 9.2 8.6 89 0.8 W 4 7 2 4 - - 0.4
26/12:00pm 10.5 9.6 7.7 83 1.4 SW 2 6 1 3 - - 0.0
26/11:30am 10.0 9.1 7.6 85 1.2 WSW 2 6 1 3 - - 0.0
26/11:00am 9.6 9.0 7.5 87 1.0 CALM 0 2 0 1 - - 0.0
26/10:30am 9.0 8.4 7.3 89 0.8 CALM 0 2 0 1 - - 0.0
26/10:00am 9.2 8.1 7.0 86 1.0 N 2 6 1 3 - - 0.0
26/09:30am 8.6 7.5 6.9 89 0.8 NNE 2 6 1 3 - - 0.0
26/09:00am 8.4 7.1 7.8 96 0.3 NNE 4 6 2 3 - - 1.0
26/08:30am 7.1 6.3 6.7 97 0.2 CALM 0 2 0 1 - - 1.0
26/08:00am 5.2 4.0 4.6 96 0.3 CALM 0 0 0 0 - - 1.0
26/07:30am 5.0 3.8 4.4 96 0.3 CALM 0 0 0 0 - - 1.0
26/07:00am 5.7 4.6 5.1 96 0.3 CALM 0 0 0 0 - - 1.0
26/06:30am 5.3 4.1 4.6 95 0.3 CALM 0 0 0 0 - - 1.0
26/06:00am 5.1 3.9 4.4 95 0.3 CALM 0 0 0 0 - - 1.0
26/05:30am 5.7 4.5 4.8 94 0.4 CALM 0 0 0 0 - - 1.0
26/05:00am 6.5 5.5 5.5 93 0.4 CALM 0 0 0 0 - - 1.0
26/04:30am 7.3 6.3 5.8 90 0.7 CALM 0 0 0 0 - - 1.0
26/04:00am 8.8 7.8 7.4 91 0.7 N 2 6 1 3 - - 1.0
26/03:30am 9.0 8.0 7.5 90 0.7 NE 2 6 1 3 - - 1.0
26/03:00am 9.3 8.0 7.6 89 0.8 NNE 4 7 2 4 - - 1.0
26/02:30am 9.3 7.5 7.9 91 0.7 NE 7 13 4 7 - - 1.0
26/02:00am 9.1 8.2 7.9 92 0.6 NE 2 7 1 4 - - 1.0
26/01:30am 9.2 7.9 7.8 91 0.7 NE 4 6 2 3 - - 1.0
26/01:00am 9.4 8.2 8.0 91 0.7 NNE 4 7 2 4 - - 1.0
26/12:30am 9.2 7.6 8.1 93 0.5 NE 6 7 3 4 - - 1.0
26/12:00am 9.3 7.7 8.2 93 0.5 NE 6 7 3 4 - - 1.0
 
Date/Time
EST
Temp
°C
App
Temp
°C
Dew
Point
°C
Rel
Hum
%
Delta-T
°C
Wind Press
QNH
hPa
Press
MSL
hPa
Rain since
9am
mm
Dir  Spd
km/h
Gust
km/h
Spd
kts
Gust
kts
25/11:30pm 9.3 8.1 8.1 92 0.6 NE 4 6 2 3 - - 1.0
25/11:00pm 9.3 8.5 8.1 92 0.6 NNE 2 4 1 2 - - 1.0
25/10:30pm 9.3 8.5 8.1 92 0.6 NNE 2 6 1 3 - - 1.0
25/10:00pm 9.4 7.8 8.2 92 0.6 NNW 6 13 3 7 - - 1.0
25/09:30pm 9.6 7.1 8.4 92 0.6 NW 11 19 6 10 - - 0.8
25/09:00pm 9.6 8.4 8.2 91 0.7 NNW 4 7 2 4 - - 0.8
25/08:30pm 9.8 7.9 7.7 87 1.0 W 7 15 4 8 - - 0.6
25/08:00pm 9.9 8.2 7.5 85 1.1 WSW 6 9 3 5 - - 0.2
25/07:30pm 10.9 9.0 6.5 74 2.1 NNW 6 13 3 7 - - 0.0
25/07:00pm 11.3 9.1 6.0 70 2.5 N 7 13 4 7 - - 0.0
25/06:30pm 11.5 8.8 5.8 68 2.7 N 9 19 5 10 - - 0.0
25/06:00pm 11.4 8.8 5.9 69 2.6 N 9 17 5 9 - - 0.0
25/05:30pm 11.5 8.9 6.0 69 2.6 N 9 19 5 10 - - 0.0
25/05:00pm 11.5 8.8 5.8 68 2.7 N 9 19 5 10 - - 0.0
25/04:30pm 11.6 8.9 5.7 67 2.8 N 9 19 5 10 - - 0.0
25/04:00pm 11.7 8.3 5.8 67 2.8 N 13 24 7 13 - - 0.0
25/03:30pm 11.6 8.2 5.7 67 2.8 N 13 22 7 12 - - 0.0
25/03:00pm 11.3 8.1 5.2 66 2.8 N 11 22 6 12 - - 0.0
25/02:30pm 11.3 8.1 5.2 66 2.8 N 11 20 6 11 - - 0.0
25/02:00pm 11.4 7.4 5.1 65 2.9 N 15 24 8 13 - - 0.0
25/01:30pm 11.7 8.1 4.9 63 3.1 N 13 26 7 14 - - 0.0
25/01:00pm 11.7 7.7 4.7 62 3.2 N 15 28 8 15 - - 0.0
25/12:30pm 11.4 7.7 4.6 63 3.1 N 13 24 7 13 - - 0.0
25/12:00pm 11.2 7.5 4.4 63 3.1 N 13 24 7 13 - - 0.0
25/11:30am 11.7 7.5 4.0 59 3.5 N 15 28 8 15 - - 0.0
25/11:00am 11.2 7.0 3.7 60 3.3 N 15 28 8 15 - - 0.0
25/10:30am 9.9 5.6 3.2 63 2.9 N 15 26 8 14 - - 0.0
25/10:00am 9.4 5.0 2.9 64 2.8 N 15 28 8 15 - - 0.0
25/09:30am 9.4 5.4 2.9 64 2.8 N 13 20 7 11 - - 0.0
25/09:00am 9.1 5.5 2.9 65 2.7 N 11 22 6 12 - - 0.2
25/08:30am 8.8 5.9 2.8 66 2.6 N 7 13 4 7 - - 0.2
25/08:00am 8.4 5.2 3.1 69 2.3 N 9 15 5 8 - - 0.2
25/07:30am 7.9 5.1 3.0 71 2.1 N 7 13 4 7 - - 0.2
25/07:00am 8.0 4.8 2.9 70 2.2 N 9 15 5 8 - - 0.2
25/06:30am 7.9 4.9 2.2 67 2.4 NNE 7 13 4 7 - - 0.2
25/06:00am 8.4 5.1 2.2 65 2.6 NNE 9 15 5 8 - - 0.2
25/05:30am 8.7 5.7 2.3 64 2.7 N 7 13 4 7 - - 0.2
25/05:00am 8.8 5.5 2.4 64 2.7 N 9 17 5 9 - - 0.2
25/04:30am 8.9 5.6 2.3 63 2.8 N 9 22 5 12 - - 0.2
25/04:00am 8.9 5.9 2.0 62 2.9 N 7 17 4 9 - - 0.2
25/03:30am 8.8 5.8 1.9 62 2.9 N 7 13 4 7 - - 0.2
25/03:00am 8.9 5.5 1.8 61 3.0 N 9 15 5 8 - - 0.2
25/02:30am 8.7 5.7 1.8 62 2.9 NNE 7 11 4 6 - - 0.2
25/02:00am 8.8 5.9 1.7 61 2.9 NNE 6 9 3 5 - - 0.2
25/01:30am 8.8 5.9 1.5 60 3.0 N 6 9 3 5 - - 0.2
25/01:00am 8.8 5.9 1.2 59 3.1 N 6 9 3 5 - - 0.2
25/12:30am 8.8 5.8 0.8 57 3.2 N 6 11 3 6 - - 0.2
25/12:00am 8.8 6.2 1.0 58 3.2 N 4 9 2 5 - - 0.2
 
Date/Time
EST
Temp
°C
App
Temp
°C
Dew
Point
°C
Rel
Hum
%
Delta-T
°C
Wind Press
QNH
hPa
Press
MSL
hPa
Rain since
9am
mm
Dir  Spd
km/h
Gust
km/h
Spd
kts
Gust
kts
24/11:30pm 8.6 5.7 1.5 61 2.9 NNE 6 9 3 5 - - 0.2
24/11:00pm 9.0 6.5 1.7 60 3.0 N 4 9 2 5 - - 0.2
24/10:30pm 9.2 6.4 2.1 61 3.0 NNW 6 13 3 7 - - 0.2
24/10:00pm 9.2 6.9 2.5 63 2.8 N 4 7 2 4 - - 0.2
24/09:30pm 9.0 7.2 3.4 68 2.4 N 2 6 1 3 - - 0.2
24/09:00pm 9.2 7.5 3.8 69 2.4 NW 2 6 1 3 - - 0.2
24/08:30pm 9.4 6.9 3.6 67 2.5 W 6 7 3 4 - - 0.2
24/08:00pm 9.3 7.2 3.9 69 2.4 WNW 4 9 2 5 - - 0.2
24/07:30pm 8.5 7.3 4.5 76 1.8 CALM 0 2 0 1 - - 0.2
24/07:00pm 8.3 7.2 5.2 81 1.4 CALM 0 0 0 0 - - 0.2
24/06:30pm 8.4 7.2 4.8 78 1.6 CALM 0 0 0 0 - - 0.2
24/06:00pm 8.6 7.4 4.8 77 1.7 CALM 0 0 0 0 - - 0.2
24/05:30pm 8.7 7.5 4.5 75 1.9 CALM 0 0 0 0 - - 0.2
24/05:00pm 9.5 8.2 4.3 70 2.3 CALM 0 0 0 0 - - 0.2
24/04:30pm 9.9 8.6 4.3 68 2.5 CALM 0 4 0 2 - - 0.2
24/04:00pm 10.2 7.6 3.3 62 3.0 WSW 6 9 3 5 - - 0.2
24/03:30pm 10.1 7.4 2.7 60 3.2 WSW 6 9 3 5 - - 0.2
24/03:00pm 11.1 8.3 2.2 54 3.8 SW 6 11 3 6 - - 0.2
24/02:30pm 10.9 7.0 1.2 51 4.1 W 11 15 6 8 - - 0.2
24/02:00pm 11.8 7.4 2.5 53 4.0 WSW 15 28 8 15 - - 0.2
24/01:30pm 11.2 7.8 2.0 53 3.9 W 9 17 5 9 - - 0.2
24/01:00pm 10.5 6.5 2.8 59 3.3 W 13 19 7 10 - - 0.2
24/12:30pm 11.1 8.1 3.9 61 3.2 W 9 15 5 8 - - 0.2
24/12:00pm 10.5 8.0 4.9 68 2.5 W 7 15 4 8 - - 0.2
24/11:30am 10.0 7.6 5.2 72 2.2 WSW 7 13 4 7 - - 0.2
24/11:00am 9.6 7.3 5.0 73 2.1 W 6 11 3 6 - - 0.2
24/10:30am 10.3 8.9 7.2 81 1.5 WNW 4 7 2 4 - - 0.2
24/10:00am 8.3 6.7 6.3 87 0.9 NW 4 7 2 4 - - 0.2
24/09:30am 7.8 7.1 6.9 94 0.4 CALM 0 6 0 3 - - 0.0
24/09:00am 7.6 6.5 7.0 96 0.3 N 2 7 1 4 - - 4.4
24/08:30am 7.0 5.8 6.4 96 0.3 ESE 2 6 1 3 - - 4.4
24/08:00am 5.5 4.3 4.8 95 0.3 CALM 0 0 0 0 - - 4.4
24/07:30am 5.7 4.5 4.8 94 0.4 CALM 0 0 0 0 - - 4.4
24/07:00am 7.2 6.4 6.3 94 0.4 CALM 0 0 0 0 - - 4.4
24/06:30am 7.6 6.8 6.7 94 0.4 CALM 0 4 0 2 - - 4.4
24/06:00am 8.1 6.7 7.3 95 0.4 WNW 4 7 2 4 - - 4.4
24/05:30am 8.0 7.4 7.4 96 0.3 CALM 0 0 0 0 - - 4.4
24/05:00am 8.1 7.5 7.5 96 0.3 CALM 0 0 0 0 - - 4.4
24/04:30am 8.7 8.3 8.1 96 0.3 CALM 0 0 0 0 - - 4.4
24/04:00am 8.8 8.3 8.0 95 0.4 CALM 0 0 0 0 - - 4.4
24/03:30am 9.0 8.6 8.2 95 0.4 CALM 0 4 0 2 - - 4.0
24/03:00am 9.0 8.6 8.1 94 0.4 CALM 0 0 0 0 - - 3.6
24/02:30am 9.1 8.3 8.2 94 0.4 SW 2 4 1 2 - - 3.6
24/02:00am 9.2 7.1 8.1 93 0.5 SW 9 17 5 9 - - 3.6
24/01:30am 9.4 9.1 8.5 94 0.4 CALM 0 6 0 3 - - 1.6
24/01:00am 9.3 8.5 8.2 93 0.5 NNW 2 6 1 3 - - 1.6
24/12:30am 9.6 8.5 8.5 93 0.5 NW 4 9 2 5 - - 1.6
24/12:00am 9.6 7.9 8.4 92 0.6 NNW 7 13 4 7 - - 1.6

Other Formats:

Comma delimited format used in spreadsheet applications
http://www.bom.gov.au/fwo/IDV60801/IDV60801.95867.axf

JavaScript Object Notation format (JSON) in row-major order
http://www.bom.gov.au/fwo/IDV60801/IDV60801.95867.json